createdAt,value
2023-04-11T00:00:41.155Z,47.5714
2023-04-11T00:01:41.333Z,47.7143
2023-04-11T00:02:41.526Z,47.7143
2023-04-11T00:03:41.517Z,47.6429
2023-04-11T00:04:41.427Z,47.5714
2023-04-11T00:05:41.346Z,47.3571
2023-04-11T00:06:41.394Z,47.7857
2023-04-11T00:07:41.431Z,48.0714
2023-04-11T00:08:41.468Z,47.7143
2023-04-11T00:09:41.514Z,47.5
2023-04-11T00:10:42.409Z,47.0714
2023-04-11T00:11:41.584Z,47.3571
2023-04-11T00:12:41.634Z,47.5714
2023-04-11T00:13:41.671Z,47.7143
2023-04-11T00:14:41.712Z,47.7143
2023-04-11T00:15:41.745Z,48
2023-04-11T00:16:41.812Z,47.9286
2023-04-11T00:17:41.875Z,48.3571
2023-04-11T00:18:41.861Z,48.3571
2023-04-11T00:19:41.903Z,48.1429
2023-04-11T00:20:41.955Z,47.8571
2023-04-11T00:21:41.981Z,47.7857
2023-04-11T00:22:42.015Z,48.0714
2023-04-11T00:23:42.047Z,48
2023-04-11T00:24:42.097Z,48.0714
2023-04-11T00:25:42.144Z,48.0714
2023-04-11T00:26:42.177Z,47.7857
2023-04-11T00:27:42.222Z,47.9286
2023-04-11T00:28:42.252Z,48.2857
2023-04-11T00:29:42.299Z,48.2857
2023-04-11T00:30:42.331Z,48.0714
2023-04-11T00:31:42.425Z,47.7143
2023-04-11T00:32:42.433Z,47.5
2023-04-11T00:33:42.475Z,47.5
2023-04-11T00:34:42.503Z,48.2857
2023-04-11T00:35:42.564Z,48.4286
2023-04-11T00:36:42.669Z,48.3571
2023-04-11T00:37:42.611Z,48.1429
2023-04-11T00:38:42.657Z,47.9286
2023-04-11T00:39:42.694Z,47.8571
2023-04-11T00:40:42.735Z,47.9286
2023-04-11T00:41:42.763Z,48.0714
2023-04-11T00:42:42.807Z,48.0714
2023-04-11T00:43:42.856Z,48.1429
2023-04-11T00:44:42.877Z,47.9286
2023-04-11T00:45:43.029Z,48.2143
2023-04-11T00:46:44.267Z,48.7857
2023-04-11T00:47:43.082Z,48.4286
2023-04-11T00:48:43.037Z,47.8571
2023-04-11T00:49:43.068Z,48.2143
2023-04-11T00:50:43.129Z,48.1429
2023-04-11T00:51:43.164Z,48.4286
2023-04-11T00:52:43.192Z,48.7143
2023-04-11T00:53:43.239Z,48.8571
2023-04-11T00:54:43.270Z,48.6429
2023-04-11T00:55:43.302Z,48.5
2023-04-11T00:56:43.343Z,48.8571
2023-04-11T00:57:43.387Z,48.0714
2023-04-11T00:58:43.419Z,48.2143
2023-04-11T00:59:43.466Z,48.6429
2023-04-11T01:00:43.493Z,48.2857
2023-04-11T01:01:43.739Z,48
2023-04-11T01:02:43.868Z,48.8571
2023-04-11T01:03:43.729Z,48.7857
2023-04-11T01:04:43.654Z,48.8571
2023-04-11T01:05:43.694Z,48.8571
2023-04-11T01:06:43.737Z,48.7857
2023-04-11T01:07:43.783Z,48.4286
2023-04-11T01:08:43.869Z,48.4286
2023-04-11T01:09:43.857Z,48.7143
2023-04-11T01:10:43.903Z,49.0714
2023-04-11T01:11:43.933Z,48.5
2023-04-11T01:12:43.986Z,48.2857
2023-04-11T01:13:44.021Z,48.3571
2023-04-11T01:14:44.065Z,48.4286
2023-04-11T01:15:44.103Z,48.3571
2023-04-11T01:16:44.146Z,48.3571
2023-04-11T01:17:44.233Z,48.4286
2023-04-11T01:18:44.224Z,48.3571
2023-04-11T01:19:44.261Z,48.1429
2023-04-11T01:20:44.303Z,48.0714
2023-04-11T01:21:44.349Z,48.1429
2023-04-11T01:22:44.384Z,48.2143
2023-04-11T01:23:44.431Z,48.9286
2023-04-11T01:25:15.916Z,49.4286
2023-04-11T01:25:44.507Z,48.7143
2023-04-11T01:26:44.554Z,48.8571
2023-04-11T01:27:44.590Z,48.6429
2023-04-11T01:28:44.634Z,48.8571
2023-04-11T01:29:44.672Z,47.9286
2023-04-11T01:30:44.728Z,47.8571
2023-04-11T01:31:44.752Z,48.0714
2023-04-11T01:32:44.832Z,48.2857
2023-04-11T01:33:44.833Z,48.1429
2023-04-11T01:34:44.875Z,48.4286
2023-04-11T01:35:44.911Z,48.2143
2023-04-11T01:36:44.930Z,48.2143
2023-04-11T01:37:44.989Z,48.0714
2023-04-11T01:38:45.020Z,48.2143
2023-04-11T01:39:45.147Z,48.6429
2023-04-11T01:40:45.105Z,48.6429
2023-04-11T01:41:45.150Z,48.2857
2023-04-11T01:42:45.185Z,48.5
2023-04-11T01:43:45.225Z,48.7857
2023-04-11T01:44:45.268Z,48.7857
2023-04-11T01:45:45.300Z,48.5
2023-04-11T01:46:45.339Z,48.2857
2023-04-11T01:47:45.452Z,47.8571
2023-04-11T01:48:45.688Z,48.1429
2023-04-11T01:49:45.480Z,48.3571
2023-04-11T01:50:45.503Z,48.4286
2023-04-11T01:51:45.542Z,47.7143
2023-04-11T01:52:45.584Z,47.7143
2023-04-11T01:53:45.618Z,47.9286
2023-04-11T01:54:45.654Z,48.1429
2023-04-11T01:55:45.695Z,48.3571
2023-04-11T01:56:45.723Z,48.2143
2023-04-11T01:57:45.767Z,48
2023-04-11T01:58:45.798Z,48.2857
2023-04-11T01:59:45.843Z,48
2023-04-11T02:00:45.876Z,48.1429
2023-04-11T02:01:46.006Z,47.7857
2023-04-11T02:02:46.193Z,48
2023-04-11T02:03:46.094Z,47.9286
2023-04-11T02:04:46.027Z,47.7857
2023-04-11T02:05:46.075Z,48.5
2023-04-11T02:06:46.109Z,48.7857
2023-04-11T02:07:46.172Z,48.7857
2023-04-11T02:08:46.184Z,48.8571
2023-04-11T02:09:46.220Z,48.6429
2023-04-11T02:10:46.247Z,48.2143
2023-04-11T02:11:46.295Z,48.5714
2023-04-11T02:12:46.371Z,48.8571
2023-04-11T02:13:46.371Z,48.6429
2023-04-11T02:14:46.399Z,48.0714
2023-04-11T02:15:46.472Z,48.1429
2023-04-11T02:16:46.481Z,48.1429
2023-04-11T02:17:46.562Z,48.2857
2023-04-11T02:18:46.565Z,48.5
2023-04-11T02:19:46.600Z,48.4286
2023-04-11T02:20:46.641Z,48.2143
2023-04-11T02:21:46.685Z,48.7143
2023-04-11T02:22:46.715Z,48.7857
2023-04-11T02:23:46.772Z,48.7143
2023-04-11T02:24:46.798Z,48.0714
2023-04-11T02:25:46.855Z,48.2143
2023-04-11T02:26:46.872Z,48.2857
2023-04-11T02:27:46.926Z,48.2143
2023-04-11T02:28:46.967Z,48.1429
2023-04-11T02:29:46.997Z,48.0714
2023-04-11T02:30:47.167Z,48.1429
2023-04-11T02:31:47.229Z,48.3571
2023-04-11T02:32:47.125Z,48.1429
2023-04-11T02:33:47.157Z,48
2023-04-11T02:34:47.185Z,48.1429
2023-04-11T02:35:47.244Z,48.2857
2023-04-11T02:36:47.293Z,48.7143
2023-04-11T02:37:47.332Z,48.6429
2023-04-11T02:38:47.371Z,49.0714
2023-04-11T02:39:47.408Z,49.2143
2023-04-11T02:40:47.462Z,48.2857
2023-04-11T02:41:47.493Z,48.1429
2023-04-11T02:42:47.526Z,48.2857
2023-04-11T02:43:47.568Z,48.4286
2023-04-11T02:44:47.613Z,48.5714
2023-04-11T02:45:47.634Z,48.5
2023-04-11T02:46:47.686Z,48.9286
2023-04-11T02:47:47.748Z,48.8571
2023-04-11T02:48:47.746Z,48.9286
2023-04-11T02:49:47.783Z,48.4286
2023-04-11T02:50:47.830Z,48.7143
2023-04-11T02:51:47.870Z,48.8571
2023-04-11T02:52:48.030Z,48.4286
2023-04-11T02:53:47.934Z,48.3571
2023-04-11T02:54:47.993Z,48.5714
2023-04-11T02:55:48.023Z,48.6429
2023-04-11T02:56:48.052Z,48.3571
2023-04-11T02:57:48.107Z,48.4286
2023-04-11T02:58:48.149Z,48.3571
2023-04-11T02:59:48.192Z,48.4286
2023-04-11T03:00:48.231Z,48.4286
2023-04-11T03:01:48.326Z,48.3571
2023-04-11T03:02:48.346Z,48.2857
2023-04-11T03:03:48.492Z,48.5714
2023-04-11T03:04:48.382Z,48.5
2023-04-11T03:05:48.414Z,48.5
2023-04-11T03:06:48.448Z,48.2857
2023-04-11T03:07:48.502Z,47.7857
2023-04-11T03:08:48.527Z,47.7143
2023-04-11T03:09:48.568Z,47.5
2023-04-11T03:10:48.612Z,47.7143
2023-04-11T03:11:48.653Z,47.7857
2023-04-11T03:12:48.691Z,47.7857
2023-04-11T03:13:48.741Z,48
2023-04-11T03:14:48.781Z,48
2023-04-11T03:15:48.862Z,48.1429
2023-04-11T03:16:48.852Z,47.8571
2023-04-11T03:17:48.919Z,47.7143
2023-04-11T03:18:48.924Z,47.5
2023-04-11T03:19:48.968Z,47.6429
2023-04-11T03:20:49.007Z,47.5714
2023-04-11T03:21:49.060Z,47.7143
2023-04-11T03:22:49.088Z,47.5714
2023-04-11T03:23:49.132Z,47.7857
2023-04-11T03:24:49.168Z,47.6429
2023-04-11T03:25:49.209Z,47.7143
2023-04-11T03:26:49.256Z,47.7143
2023-04-11T03:27:49.303Z,47.3571
2023-04-11T03:28:49.333Z,47.3571
2023-04-11T03:29:49.381Z,47.2143
2023-04-11T03:30:49.411Z,47.0714
2023-04-11T03:31:49.480Z,47.1429
2023-04-11T03:32:49.557Z,47
2023-04-11T03:33:49.529Z,46.9286
2023-04-11T03:34:49.565Z,46.8571
2023-04-11T03:35:49.627Z,46.8571
2023-04-11T03:36:49.642Z,46.8571
2023-04-11T03:37:49.681Z,47.1429
2023-04-11T03:38:49.724Z,47.2857
2023-04-11T03:39:49.753Z,47.2857
2023-04-11T03:40:49.794Z,47.1429
2023-04-11T03:41:49.835Z,47.2143
2023-04-11T03:42:49.879Z,47.2143
2023-04-11T03:43:49.915Z,47.5714
2023-04-11T03:44:49.956Z,47.5714
2023-04-11T03:45:50.001Z,47.7857
2023-04-11T03:46:50.132Z,47.6429
2023-04-11T03:47:50.107Z,47.7857
2023-04-11T03:48:50.128Z,47.7857
2023-04-11T03:49:50.168Z,48.5
2023-04-11T03:50:50.185Z,49.1429
2023-04-11T03:51:50.257Z,49.1429
2023-04-11T03:52:50.270Z,49.3571
2023-04-11T03:53:50.310Z,49.5
2023-04-11T03:54:50.348Z,49.1429
2023-04-11T03:55:50.398Z,49.5714
2023-04-11T03:56:50.439Z,49.7143
2023-04-11T03:57:50.475Z,50.4286
2023-04-11T03:58:50.526Z,51.2143
2023-04-11T03:59:50.559Z,52.2143
2023-04-11T04:00:50.608Z,52.7857
2023-04-11T04:01:50.703Z,52.7857
2023-04-11T04:02:50.922Z,53.0714
2023-04-11T04:03:51.007Z,53.5
2023-04-11T04:04:50.843Z,53.6429
2023-04-11T04:05:50.808Z,53.7857
2023-04-11T04:06:50.921Z,54
2023-04-11T04:07:50.886Z,54.9286
2023-04-11T04:08:50.925Z,55.7143
2023-04-11T04:09:50.966Z,56.5714
2023-04-11T04:10:50.998Z,57.3571
2023-04-11T04:11:51.057Z,58
2023-04-11T04:12:51.076Z,58.7857
2023-04-11T04:13:51.127Z,59.1429
2023-04-11T04:14:51.160Z,59.3571
2023-04-11T04:15:51.201Z,59.7143
2023-04-11T04:16:51.281Z,60.1429
2023-04-11T04:17:51.305Z,60.5714
2023-04-11T04:18:51.313Z,60.8571
2023-04-11T04:19:51.353Z,61.2857
2023-04-11T04:20:51.392Z,61.5714
2023-04-11T04:21:51.433Z,61.7143
2023-04-11T04:22:51.473Z,61.7857
2023-04-11T04:23:51.516Z,62.2143
2023-04-11T04:24:51.555Z,62.4286
2023-04-11T04:25:51.600Z,62.6429
2023-04-11T04:26:51.627Z,62.9286
2023-04-11T04:27:51.678Z,63.0714
2023-04-11T04:28:51.723Z,63.2857
2023-04-11T04:29:54.471Z,63.3571
2023-04-11T04:30:51.806Z,63.4286
2023-04-11T04:31:51.859Z,63.6429
2023-04-11T04:32:51.941Z,63.7143
2023-04-11T04:33:51.935Z,63.9286
2023-04-11T04:34:51.959Z,64.2143
2023-04-11T04:35:52.030Z,64.4286
2023-04-11T04:36:52.031Z,64.7857
2023-04-11T04:37:52.074Z,65
2023-04-11T04:38:52.112Z,65.2857
2023-04-11T04:39:52.153Z,65.4286
2023-04-11T04:40:52.193Z,65.6429
2023-04-11T04:41:52.224Z,65.7143
2023-04-11T04:42:52.271Z,65.8571
2023-04-11T04:43:53.271Z,65.9286
2023-04-11T04:46:52.418Z,66.2143
2023-04-11T04:48:07.944Z,66.2857
2023-04-11T04:49:53.956Z,66.3571
2023-04-11T04:50:53.060Z,66.5
2023-04-11T04:51:53.113Z,66.5
2023-04-11T04:54:52.947Z,66.8571
2023-04-11T04:56:01.481Z,66.8571
2023-04-11T04:56:57.067Z,66.9286
2023-04-11T04:58:01.004Z,67
2023-04-11T04:59:10.987Z,67.0714
2023-04-11T04:59:53.401Z,67.0714
2023-04-11T05:00:53.482Z,67.0714
2023-04-11T05:04:54.372Z,67.2143
2023-04-11T05:05:55.533Z,67.2857
2023-04-11T05:09:54.252Z,67.3571
2023-04-11T05:09:55.250Z,67.2143
2023-04-11T05:10:53.337Z,67.4286
2023-04-11T05:12:58.154Z,67.5714
2023-04-11T05:13:52.825Z,67.5
2023-04-11T05:13:54.268Z,67.6429
2023-04-11T05:14:58.800Z,67.6429
2023-04-11T05:15:59.184Z,67.7143
2023-04-11T05:18:01.250Z,67.8571
2023-04-11T05:18:53.680Z,67.8571
2023-04-11T05:19:53.680Z,67.9286
2023-04-11T05:20:53.712Z,67.9286
2023-04-11T05:21:53.751Z,68
2023-04-11T05:22:53.799Z,68
2023-04-11T05:23:54.065Z,68.0714
2023-04-11T05:24:53.867Z,68.0714
2023-04-11T05:25:53.942Z,68.2143
2023-04-11T05:26:53.949Z,68.2857
2023-04-11T05:27:53.988Z,68.2857
2023-04-11T05:28:54.025Z,68.3571
2023-04-11T05:29:54.069Z,68.3571
2023-04-11T05:30:54.171Z,68.2857
2023-04-11T05:31:54.151Z,68.2857
2023-04-11T05:32:54.235Z,68.3571
2023-04-11T05:33:54.507Z,68.2857
2023-04-11T05:34:56.561Z,68.3571
2023-04-11T05:35:54.334Z,68.4286
2023-04-11T05:36:54.332Z,68.5
2023-04-11T05:37:54.377Z,68.5
2023-04-11T05:38:54.420Z,68.5714
2023-04-11T05:39:54.458Z,68.5714
2023-04-11T05:40:54.495Z,68.5714
2023-04-11T05:41:54.538Z,68.5714
2023-04-11T05:42:54.598Z,68.5714
2023-04-11T05:43:54.910Z,68.5
2023-04-11T05:44:54.653Z,68.4286
2023-04-11T05:45:54.741Z,68.3571
2023-04-11T05:46:54.734Z,68.2857
2023-04-11T05:47:54.791Z,68.3571
2023-04-11T05:48:54.810Z,68.2857
2023-04-11T05:49:54.846Z,68.2857
2023-04-11T05:50:54.899Z,68.2857
2023-04-11T05:51:54.936Z,68.2857
2023-04-11T05:52:54.976Z,68.3571
2023-04-11T05:53:55.265Z,68.3571
2023-04-11T05:54:55.041Z,68.3571
2023-04-11T05:55:55.107Z,68.3571
2023-04-11T05:56:55.122Z,68.2857
2023-04-11T05:57:55.174Z,68.2857
2023-04-11T05:58:55.196Z,68.4286
2023-04-11T05:59:55.233Z,68.5
2023-04-11T06:00:55.288Z,68.5
2023-04-11T06:01:55.371Z,68.6429
2023-04-11T06:02:55.496Z,68.6429
2023-04-11T06:03:55.967Z,68.6429
2023-04-11T06:04:55.506Z,68.5714
2023-04-11T06:05:55.477Z,68.4286
2023-04-11T06:06:55.508Z,68.3571
2023-04-11T06:07:55.556Z,68.2857
2023-04-11T06:08:55.591Z,68.2857
2023-04-11T06:09:55.630Z,68.2143
2023-04-11T06:10:55.664Z,68.2143
2023-04-11T06:11:55.723Z,68.1429
2023-04-11T06:12:55.725Z,68.1429
2023-04-11T06:13:55.993Z,68.1429
2023-04-11T06:14:55.810Z,68.2143
2023-04-11T06:15:55.868Z,68.0714
2023-04-11T06:16:55.894Z,68
2023-04-11T06:17:55.999Z,68
2023-04-11T06:18:55.943Z,68
2023-04-11T06:19:55.985Z,68
2023-04-11T06:20:56.022Z,67.9286
2023-04-11T06:21:56.065Z,68
2023-04-11T06:22:56.102Z,68.0714
2023-04-11T06:23:56.726Z,68.0714
2023-04-11T06:25:56.208Z,68
2023-04-11T06:26:56.261Z,67.9286
2023-04-11T06:27:56.307Z,67.7857
2023-04-11T06:28:56.333Z,67.7143
2023-04-11T06:29:56.384Z,67.7143
2023-04-11T06:30:56.465Z,67.7857
2023-04-11T06:31:56.463Z,67.7857
2023-04-11T06:32:56.547Z,67.7143
2023-04-11T06:33:56.893Z,67.7143
2023-04-11T06:34:56.584Z,67.7143
2023-04-11T06:35:56.645Z,67.7857
2023-04-11T06:36:56.653Z,67.7857
2023-04-11T06:37:56.704Z,67.8571
2023-04-11T06:38:56.753Z,67.9286
2023-04-11T06:39:56.771Z,68
2023-04-11T06:40:56.814Z,67.9286
2023-04-11T06:41:56.852Z,68
2023-04-11T06:42:56.899Z,68.0714
2023-04-11T06:43:57.218Z,68.0714
2023-04-11T06:44:56.964Z,67.9286
2023-04-11T06:45:57.008Z,67.9286
2023-04-11T06:46:57.224Z,67.8571
2023-04-11T06:47:57.096Z,67.8571
2023-04-11T06:48:57.110Z,67.8571
2023-04-11T06:49:57.164Z,67.7857
2023-04-11T06:50:57.188Z,67.7857
2023-04-11T06:51:57.239Z,67.8571
2023-04-11T06:52:57.274Z,67.8571
2023-04-11T06:53:57.517Z,67.8571
2023-04-11T06:54:57.365Z,67.7857
2023-04-11T06:55:57.391Z,67.7143
2023-04-11T06:56:57.438Z,67.7857
2023-04-11T06:57:57.464Z,67.6429
2023-04-11T06:58:57.545Z,67.5
2023-04-11T06:59:57.571Z,67.4286
2023-04-11T07:00:57.580Z,67.4286
2023-04-11T07:01:57.658Z,67.4286
2023-04-11T07:02:57.943Z,67.5714
2023-04-11T07:03:57.870Z,67.5714
2023-04-11T07:04:57.803Z,67.6429
2023-04-11T07:05:57.778Z,67.5714
2023-04-11T07:06:57.822Z,67.4286
2023-04-11T07:07:57.868Z,67.4286
2023-04-11T07:08:57.896Z,67.4286
2023-04-11T07:09:57.940Z,67.2143
2023-04-11T07:10:57.975Z,67.1429
2023-04-11T07:11:58.020Z,67.1429
2023-04-11T07:12:58.052Z,67.0714
2023-04-11T07:13:58.209Z,67.1429
2023-04-11T07:14:58.112Z,67.1429
2023-04-11T07:15:58.258Z,66.9286
2023-04-11T07:16:58.195Z,66.8571
2023-04-11T07:17:58.276Z,66.6429
2023-04-11T07:18:58.284Z,66.4286
2023-04-11T07:19:58.330Z,66.3571
2023-04-11T07:20:58.351Z,66.3571
2023-04-11T07:21:58.412Z,66.3571
2023-04-11T07:22:58.432Z,66.3571
2023-04-11T07:23:58.468Z,66.2143
2023-04-11T07:24:58.514Z,66.1429
2023-04-11T07:25:58.542Z,65.8571
2023-04-11T07:26:58.590Z,65.7857
2023-04-11T07:27:58.636Z,65.9286
2023-04-11T07:28:58.654Z,65.9286
2023-04-11T07:29:58.693Z,66
2023-04-11T07:30:58.731Z,65.9286
2023-04-11T07:31:58.868Z,66
2023-04-11T07:32:58.846Z,65.9286
2023-04-11T07:33:59.085Z,66
2023-04-11T07:34:58.896Z,66.0714
2023-04-11T07:35:58.952Z,66.1429
2023-04-11T07:36:58.974Z,66.2143
2023-04-11T07:37:59.020Z,66.1429
2023-04-11T07:38:59.061Z,66.0714
2023-04-11T07:39:59.089Z,65.7143
2023-04-11T07:40:59.130Z,65.5
2023-04-11T07:41:59.162Z,65.2857
2023-04-11T07:42:59.199Z,65.0714
2023-04-11T07:43:59.242Z,65
2023-04-11T07:44:59.290Z,64.9286
2023-04-11T07:45:59.321Z,65
2023-04-11T07:46:59.361Z,64.7143
2023-04-11T07:47:59.426Z,64.6429
2023-04-11T07:48:59.432Z,64.7143
2023-04-11T07:49:59.478Z,64.6429
2023-04-11T07:50:59.550Z,64.6429
2023-04-11T07:51:59.563Z,64.5714
2023-04-11T07:52:59.604Z,64.5
2023-04-11T07:53:59.652Z,64.5
2023-04-11T07:54:59.682Z,64.5
2023-04-11T07:55:59.764Z,64.2143
2023-04-11T07:56:59.750Z,63.7143
2023-04-11T07:57:59.791Z,63.3571
2023-04-11T07:58:59.827Z,63
2023-04-11T07:59:59.894Z,62.6429
2023-04-11T08:00:59.916Z,62.4286
2023-04-11T08:02:00.057Z,62
2023-04-11T08:03:00.265Z,61.7857
2023-04-11T08:04:00.663Z,61.2857
2023-04-11T08:05:00.163Z,61.0714
2023-04-11T08:06:00.150Z,60.9286
2023-04-11T08:07:00.142Z,60.6429
2023-04-11T08:08:00.184Z,60.5
2023-04-11T08:09:00.207Z,60.5714
2023-04-11T08:10:00.282Z,60.7143
2023-04-11T08:11:00.278Z,60.7143
2023-04-11T08:12:00.328Z,60.5
2023-04-11T08:13:00.360Z,60.5714
2023-04-11T08:14:00.396Z,60.3571
2023-04-11T08:15:00.445Z,60.2143
2023-04-11T08:16:00.465Z,60.3571
2023-04-11T08:17:00.511Z,60.5
2023-04-11T08:18:00.602Z,60.3571
2023-04-11T08:19:00.568Z,60.2857
2023-04-11T08:20:02.289Z,60.2143
2023-04-11T08:21:00.668Z,60.3571
2023-04-11T08:22:00.695Z,60.7143
2023-04-11T08:23:00.729Z,60.7857
2023-04-11T08:24:00.753Z,60.9286
2023-04-11T08:25:00.795Z,60.9286
2023-04-11T08:26:00.846Z,60.8571
2023-04-11T08:27:00.873Z,60.6429
2023-04-11T08:28:00.920Z,60.7143
2023-04-11T08:29:00.942Z,61.1429
2023-04-11T08:30:00.987Z,61.2143
2023-04-11T08:31:01.051Z,61.2143
2023-04-11T08:32:01.084Z,61.2857
2023-04-11T08:33:01.168Z,61.5714
2023-04-11T08:34:02.653Z,61.6429
2023-04-11T08:35:01.183Z,61.3571
2023-04-11T08:36:01.231Z,61.5
2023-04-11T08:37:01.267Z,61.6429
2023-04-11T08:38:01.312Z,61.6429
2023-04-11T08:39:01.358Z,61.3571
2023-04-11T08:40:01.396Z,61.2143
2023-04-11T08:41:01.456Z,60.9286
2023-04-11T08:42:01.486Z,60.8571
2023-04-11T08:43:01.603Z,61.1429
2023-04-11T08:44:01.547Z,61.2857
2023-04-11T08:45:01.591Z,61
2023-04-11T08:46:01.650Z,60.9286
2023-04-11T08:47:01.672Z,61
2023-04-11T08:48:01.733Z,61
2023-04-11T08:49:01.752Z,60.9286
2023-04-11T08:50:01.827Z,60.8571
2023-04-11T08:51:01.823Z,60.9286
2023-04-11T08:52:01.860Z,60.9286
2023-04-11T08:53:01.896Z,60.8571
2023-04-11T08:54:01.935Z,60.9286
2023-04-11T08:55:02.105Z,60.8571
2023-04-11T08:56:02.032Z,60.7143
2023-04-11T08:57:02.068Z,61.0714
2023-04-11T08:58:02.099Z,60.5
2023-04-11T08:59:02.144Z,60.2143
2023-04-11T09:00:02.179Z,60.2143
2023-04-11T09:01:02.228Z,60.1429
2023-04-11T09:02:02.327Z,59.7857
2023-04-11T09:03:02.436Z,59.0714
2023-04-11T09:04:02.327Z,58.5714
2023-04-11T09:05:02.435Z,58.2857
2023-04-11T09:06:02.412Z,58.2143
2023-04-11T09:07:02.450Z,57.2857
2023-04-11T09:08:02.478Z,56.7857
2023-04-11T09:09:02.524Z,56.7857
2023-04-11T09:10:02.567Z,57.0714
2023-04-11T09:11:02.606Z,56.9286
2023-04-11T09:12:02.638Z,56.1429
2023-04-11T09:13:02.679Z,56.2143
2023-04-11T09:14:02.706Z,55.6429
2023-04-11T09:15:02.752Z,55.1429
2023-04-11T09:16:02.814Z,54.9286
2023-04-11T09:17:02.828Z,54.7143
2023-04-11T09:18:02.904Z,54.5714
2023-04-11T09:19:02.946Z,55.0714
2023-04-11T09:20:02.934Z,54.7857
2023-04-11T09:21:02.980Z,54.7857
2023-04-11T09:22:03.011Z,54.1429
2023-04-11T09:23:03.056Z,54.0714
2023-04-11T09:24:03.084Z,54.2857
2023-04-11T09:25:03.133Z,53.9286
2023-04-11T09:26:03.181Z,53.7857
2023-04-11T09:27:03.207Z,53.7857
2023-04-11T09:28:03.248Z,53.5714
2023-04-11T09:29:03.284Z,53.9286
2023-04-11T09:30:03.325Z,53.2143
2023-04-11T09:31:03.414Z,52.7143
2023-04-11T09:32:03.402Z,52.5714
2023-04-11T09:33:03.517Z,52.2143
2023-04-11T09:34:03.480Z,52.3571
2023-04-11T09:35:03.528Z,53.2143
2023-04-11T09:36:03.581Z,52.7857
2023-04-11T09:37:03.602Z,52.6429
2023-04-11T09:38:03.632Z,52.2143
2023-04-11T09:39:03.678Z,51.9286
2023-04-11T09:40:05.598Z,52.1429
2023-04-11T09:41:03.760Z,51.4286
2023-04-11T09:42:03.786Z,51.2857
2023-04-11T09:43:03.834Z,51.2143
2023-04-11T09:44:03.893Z,51.5714
2023-04-11T09:45:03.901Z,51.5714
2023-04-11T09:46:03.946Z,51.9286
2023-04-11T09:47:04.022Z,52.2143
2023-04-11T09:48:04.043Z,51.8571
2023-04-11T09:49:04.373Z,51.5714
2023-04-11T09:50:04.102Z,51.9286
2023-04-11T09:51:04.143Z,51.7857
2023-04-11T09:52:04.176Z,51.7857
2023-04-11T09:53:04.211Z,51.2857
2023-04-11T09:54:04.725Z,51.5
2023-04-11T09:55:04.290Z,52.2857
2023-04-11T09:56:04.332Z,51.9286
2023-04-11T09:57:04.359Z,51.3571
2023-04-11T09:58:04.392Z,51.4286
2023-04-11T09:59:04.454Z,52.1429
2023-04-11T10:00:04.478Z,51.1429
2023-04-11T10:01:04.516Z,49.8571
2023-04-11T10:02:04.718Z,50
2023-04-11T10:03:04.702Z,51.0714
2023-04-11T10:04:04.682Z,50.7143
2023-04-11T10:05:04.673Z,50.5
2023-04-11T10:06:04.700Z,50.2143
2023-04-11T10:07:04.736Z,49.9286
2023-04-11T10:08:04.804Z,49.2857
2023-04-11T10:09:04.825Z,49.0714
2023-04-11T10:10:04.868Z,48.7857
2023-04-11T10:11:04.892Z,49.5714
2023-04-11T10:12:04.937Z,50.2857
2023-04-11T10:13:04.993Z,49.8571
2023-04-11T10:14:05.037Z,49.1429
2023-04-11T10:15:05.065Z,49.0714
2023-04-11T10:16:05.186Z,49.7857
2023-04-11T10:17:05.130Z,49.5714
2023-04-11T10:18:05.214Z,49.1429
2023-04-11T10:19:05.209Z,49.5714
2023-04-11T10:20:05.247Z,49.5
2023-04-11T10:21:05.283Z,50.2857
2023-04-11T10:22:05.329Z,49.3571
2023-04-11T10:23:05.366Z,49.3571
2023-04-11T10:24:05.403Z,49.0714
2023-04-11T10:25:05.440Z,48.2857
2023-04-11T10:26:05.473Z,48.5714
2023-04-11T10:27:05.525Z,48.7143
2023-04-11T10:28:05.579Z,48.7857
2023-04-11T10:29:05.612Z,48.6429
2023-04-11T10:30:05.647Z,49.2143
2023-04-11T10:31:05.800Z,48.9286
2023-04-11T10:32:05.716Z,48.9286
2023-04-11T10:33:05.788Z,49.2857
2023-04-11T10:34:05.788Z,49
2023-04-11T10:35:05.827Z,48.4286
2023-04-11T10:36:05.977Z,48.5
2023-04-11T10:37:05.906Z,48.5714
2023-04-11T10:38:05.947Z,48.2143
2023-04-11T10:39:05.972Z,48.7143
2023-04-11T10:40:06.030Z,48.7143
2023-04-11T10:41:06.070Z,48.7857
2023-04-11T10:42:06.102Z,49.1429
2023-04-11T10:43:06.138Z,49.1429
2023-04-11T10:44:06.180Z,49.3571
2023-04-11T10:45:06.215Z,49.3571
2023-04-11T10:46:06.257Z,48.8571
2023-04-11T10:47:06.334Z,48.8571
2023-04-11T10:48:06.374Z,48.7857
2023-04-11T10:49:06.371Z,47.7857
2023-04-11T10:50:06.408Z,47.2143
2023-04-11T10:51:06.452Z,47.6429
2023-04-11T10:52:06.493Z,47.7857
2023-04-11T10:53:06.559Z,47.9286
2023-04-11T10:54:06.611Z,48.2143
2023-04-11T10:55:06.617Z,49.2143
2023-04-11T10:56:06.663Z,49.3571
2023-04-11T10:57:06.673Z,49.6429
2023-04-11T10:58:06.713Z,50.5714
2023-04-11T10:59:06.753Z,50.2857
2023-04-11T11:00:06.808Z,48.6429
2023-04-11T11:01:06.873Z,48.3571
2023-04-11T11:02:06.959Z,48.1429
2023-04-11T11:03:07.012Z,47.6429
2023-04-11T11:04:07.428Z,47
2023-04-11T11:05:07.103Z,46.4286
2023-04-11T11:06:07.034Z,46.2857
2023-04-11T11:07:07.054Z,46.4286
2023-04-11T11:08:07.092Z,47.1429
2023-04-11T11:09:07.132Z,47.2857
2023-04-11T11:10:07.167Z,47.4286
2023-04-11T11:11:07.225Z,48.4286
2023-04-11T11:12:07.251Z,48.2857
2023-04-11T11:13:07.296Z,48.4286
2023-04-11T11:14:07.326Z,48.3571
2023-04-11T11:15:07.368Z,48.1429
2023-04-11T11:16:07.460Z,46.9286
2023-04-11T11:17:07.694Z,46.9286
2023-04-11T11:18:07.532Z,47.4286
2023-04-11T11:19:07.518Z,48.2143
2023-04-11T11:20:07.570Z,48.4286
2023-04-11T11:21:13.877Z,48.0714
2023-04-11T11:22:07.635Z,48.9286
2023-04-11T11:23:07.712Z,48.2143
2023-04-11T11:24:07.718Z,47.1429
2023-04-11T11:25:07.769Z,47.8571
2023-04-11T11:26:07.809Z,47.3571
2023-04-11T11:27:07.834Z,47.5714
2023-04-11T11:28:07.893Z,47.4286
2023-04-11T11:29:07.929Z,47.8571
2023-04-11T11:30:07.958Z,48.1429
2023-04-11T11:31:08.009Z,48.2143
2023-04-11T11:32:08.117Z,48.8571
2023-04-11T11:33:08.176Z,48.2857
2023-04-11T11:34:23.017Z,48
2023-04-11T11:35:08.186Z,47.7857
2023-04-11T11:36:08.207Z,47.5
2023-04-11T11:37:08.256Z,47.0714
2023-04-11T11:38:08.296Z,46.9286
2023-04-11T11:39:08.338Z,47.7857
2023-04-11T11:40:08.379Z,48.7143
2023-04-11T11:41:08.410Z,48.2857
2023-04-11T11:42:08.451Z,49.2857
2023-04-11T11:43:08.489Z,47.2143
2023-04-11T11:44:08.544Z,46.2143
2023-04-11T11:45:08.572Z,45.9286
2023-04-11T11:46:08.940Z,45.7143
2023-04-11T11:47:08.647Z,45.3571
2023-04-11T11:48:08.724Z,45.2143
2023-04-11T11:49:08.719Z,45
2023-04-11T11:50:08.769Z,46
2023-04-11T11:51:08.814Z,46.2143
2023-04-11T11:52:08.852Z,47
2023-04-11T11:53:08.919Z,47
2023-04-11T11:54:08.927Z,46.2857
2023-04-11T11:55:10.994Z,45.7143
2023-04-11T11:56:09.016Z,45
2023-04-11T11:57:09.065Z,44.8571
2023-04-11T11:58:09.110Z,45.0714
2023-04-11T11:59:09.153Z,45.5714
2023-04-11T12:00:09.180Z,46.2143
2023-04-11T12:01:09.229Z,45.2143
2023-04-11T12:02:09.368Z,45
2023-04-11T12:03:09.356Z,44.6429
2023-04-11T12:04:09.461Z,44.5714
2023-04-11T12:05:09.441Z,44.5714
2023-04-11T12:06:09.439Z,44.5714
2023-04-11T12:07:09.472Z,44.9286
2023-04-11T12:08:09.516Z,44.2857
2023-04-11T12:09:09.557Z,44.4286
2023-04-11T12:10:09.589Z,45.1429
2023-04-11T12:11:09.623Z,45
2023-04-11T12:12:09.675Z,44.0714
2023-04-11T12:13:09.715Z,43.7857
2023-04-11T12:14:09.759Z,43.6429
2023-04-11T12:15:09.801Z,43.8571
2023-04-11T12:16:09.837Z,43.3571
2023-04-11T12:17:09.864Z,43.2143
2023-04-11T12:18:09.968Z,43.4286
2023-04-11T12:19:09.961Z,43.4286
2023-04-11T12:20:09.984Z,43.9286
2023-04-11T12:21:10.033Z,44.7143
2023-04-11T12:22:10.057Z,44.7143
2023-04-11T12:23:10.095Z,44.5
2023-04-11T12:24:10.136Z,44
2023-04-11T12:25:10.186Z,43.6429
2023-04-11T12:26:10.223Z,43.2857
2023-04-11T12:27:10.816Z,43.3571
2023-04-11T12:28:10.307Z,43.7143
2023-04-11T12:29:10.334Z,43.0714